createdAt,value
2022-12-05T00:00:13.892Z,3.57
2022-12-05T00:00:34.956Z,3.56
2022-12-05T00:00:56.037Z,3.57
2022-12-05T00:01:17.081Z,3.57
2022-12-05T00:01:38.289Z,3.57
2022-12-05T00:01:59.406Z,3.57
2022-12-05T00:02:20.531Z,3.57
2022-12-05T00:02:41.694Z,3.57
2022-12-05T00:03:02.732Z,3.56
2022-12-05T00:03:23.811Z,3.57
2022-12-05T00:03:44.959Z,3.57
2022-12-05T00:04:06.074Z,3.57
2022-12-05T00:04:27.268Z,3.57
2022-12-05T00:04:48.327Z,3.57
2022-12-05T00:05:09.378Z,3.58
2022-12-05T00:05:30.437Z,3.57
2022-12-05T00:05:51.519Z,3.57
2022-12-05T00:06:12.603Z,3.56
2022-12-05T00:06:33.686Z,3.56
2022-12-05T00:06:54.886Z,3.58
2022-12-05T00:07:15.948Z,3.57
2022-12-05T00:07:37.091Z,3.57
2022-12-05T00:07:58.208Z,3.57
2022-12-05T00:08:19.391Z,3.56
2022-12-05T00:08:40.457Z,3.57
2022-12-05T00:09:01.522Z,3.57
2022-12-05T00:09:22.577Z,3.56
2022-12-05T00:09:43.636Z,3.56
2022-12-05T00:10:04.703Z,3.57
2022-12-05T00:10:25.771Z,3.57
2022-12-05T00:10:46.898Z,3.57
2022-12-05T00:11:07.914Z,3.57
2022-12-05T00:11:28.978Z,3.57
2022-12-05T00:11:50.312Z,3.56
2022-12-05T00:12:12.336Z,3.56
2022-12-05T00:12:33.421Z,3.56
2022-12-05T00:12:54.489Z,3.56
2022-12-05T00:13:15.546Z,3.57
2022-12-05T00:13:36.604Z,3.57
2022-12-05T00:13:57.658Z,3.57
2022-12-05T00:14:18.721Z,3.57
2022-12-05T00:14:39.796Z,3.57
2022-12-05T00:15:00.841Z,3.58
2022-12-05T00:15:21.919Z,3.57
2022-12-05T00:15:42.964Z,3.56
2022-12-05T00:16:04.030Z,3.57
2022-12-05T00:16:25.147Z,3.57
2022-12-05T00:16:46.248Z,3.57
2022-12-05T00:17:07.382Z,3.57
2022-12-05T00:17:28.450Z,3.57
2022-12-05T00:17:49.515Z,3.57
2022-12-05T00:18:10.570Z,3.57
2022-12-05T00:18:31.628Z,3.56
2022-12-05T00:18:52.714Z,3.56
2022-12-05T00:19:13.754Z,3.56
2022-12-05T00:19:34.850Z,3.57
2022-12-05T00:19:57.063Z,3.56
2022-12-05T00:20:18.192Z,3.56
2022-12-05T00:20:39.263Z,3.56
2022-12-05T00:21:00.316Z,3.56
2022-12-05T00:21:21.372Z,3.56
2022-12-05T00:21:42.559Z,3.56
2022-12-05T00:22:03.610Z,3.55
2022-12-05T00:22:24.674Z,3.55
2022-12-05T00:22:45.734Z,3.55
2022-12-05T00:23:06.787Z,3.55
2022-12-05T00:23:27.852Z,3.55
2022-12-05T00:23:48.918Z,3.55
2022-12-05T00:24:09.982Z,3.55
2022-12-05T00:24:31.044Z,3.55
2022-12-05T00:24:52.109Z,3.54
2022-12-05T00:25:13.180Z,3.55
2022-12-05T00:25:34.244Z,3.54
2022-12-05T00:25:55.327Z,3.54
2022-12-05T00:26:16.374Z,3.54
2022-12-05T00:26:37.453Z,3.54
2022-12-05T00:26:58.525Z,3.54
2022-12-05T00:27:19.600Z,3.53
2022-12-05T00:27:40.690Z,3.54
2022-12-05T00:28:01.760Z,3.53
2022-12-05T00:28:22.809Z,3.53
2022-12-05T00:28:43.868Z,3.53
2022-12-05T00:29:04.947Z,3.53
2022-12-05T00:29:26.044Z,3.53
2022-12-05T00:29:47.118Z,3.53
2022-12-05T00:30:08.153Z,3.52
2022-12-05T00:30:29.212Z,3.53
2022-12-05T00:30:50.268Z,3.53
2022-12-05T00:31:11.331Z,3.53
2022-12-05T00:31:32.490Z,3.53
2022-12-05T00:31:53.587Z,3.53
2022-12-05T00:32:14.793Z,3.52
2022-12-05T00:32:35.888Z,3.52
2022-12-05T00:32:56.975Z,3.52
2022-12-05T00:33:18.030Z,3.52
2022-12-05T00:33:39.100Z,3.51
2022-12-05T00:34:00.178Z,3.52
2022-12-05T00:34:21.230Z,3.51
2022-12-05T00:34:42.307Z,3.51
2022-12-05T00:35:03.365Z,3.51
2022-12-05T00:35:24.435Z,3.51
2022-12-05T00:35:45.545Z,3.51
2022-12-05T00:36:06.623Z,3.51
2022-12-05T00:36:27.682Z,3.51
2022-12-05T00:36:48.773Z,3.52
2022-12-05T00:37:09.861Z,3.50
2022-12-05T00:37:31.029Z,3.51
2022-12-05T00:37:52.093Z,3.51
2022-12-05T00:38:13.144Z,3.51
2022-12-05T00:38:34.216Z,3.51
2022-12-05T00:38:55.264Z,3.52
2022-12-05T00:39:16.321Z,3.51
2022-12-05T00:39:37.385Z,3.51
2022-12-05T00:39:58.612Z,3.52
2022-12-05T00:40:19.724Z,3.52
2022-12-05T00:40:40.809Z,3.52
2022-12-05T00:41:01.858Z,3.52
2022-12-05T00:41:22.938Z,3.52
2022-12-05T00:41:44.010Z,3.52
2022-12-05T00:42:05.051Z,3.52
2022-12-05T00:42:26.106Z,3.52
2022-12-05T00:42:52.135Z,3.53
2022-12-05T00:43:14.172Z,3.54
2022-12-05T00:43:35.238Z,3.53
2022-12-05T00:43:56.302Z,3.53
2022-12-05T00:44:17.358Z,3.54
2022-12-05T00:44:38.420Z,3.53
2022-12-05T00:44:59.523Z,3.54
2022-12-05T00:45:20.585Z,3.53
2022-12-05T00:45:41.689Z,3.53
2022-12-05T00:46:02.812Z,3.52
2022-12-05T00:46:23.959Z,3.53
2022-12-05T00:46:45.154Z,3.53
2022-12-05T00:47:06.263Z,3.53
2022-12-05T00:47:27.302Z,3.53
2022-12-05T00:47:48.375Z,3.54
2022-12-05T00:48:09.438Z,3.53
2022-12-05T00:48:30.491Z,3.53
2022-12-05T00:48:51.547Z,3.53
2022-12-05T00:49:12.609Z,3.53
2022-12-05T00:49:33.662Z,3.53
2022-12-05T00:49:55.111Z,3.54
2022-12-05T00:50:16.471Z,3.54
2022-12-05T00:50:37.506Z,3.54
2022-12-05T00:50:58.578Z,3.53
2022-12-05T00:51:19.624Z,3.53
2022-12-05T00:51:40.819Z,3.53
2022-12-05T00:52:01.870Z,3.53
2022-12-05T00:52:22.929Z,3.53
2022-12-05T00:52:43.997Z,3.53
2022-12-05T00:53:05.055Z,3.53
2022-12-05T00:53:26.112Z,3.53
2022-12-05T00:53:47.188Z,3.53
2022-12-05T00:54:08.292Z,3.53
2022-12-05T00:54:29.325Z,3.53
2022-12-05T00:54:50.392Z,3.53
2022-12-05T00:55:11.448Z,3.54
2022-12-05T00:55:32.495Z,3.54
2022-12-05T00:55:53.606Z,3.53
2022-12-05T00:56:14.657Z,3.53
2022-12-05T00:56:35.722Z,3.53
2022-12-05T00:56:56.895Z,3.53
2022-12-05T00:57:17.956Z,3.53
2022-12-05T00:57:39.039Z,3.54
2022-12-05T00:58:00.089Z,3.54
2022-12-05T00:58:21.165Z,3.53
2022-12-05T00:58:42.231Z,3.54
2022-12-05T00:59:03.274Z,3.54
2022-12-05T00:59:24.342Z,3.54
2022-12-05T00:59:45.404Z,3.54
2022-12-05T01:00:06.501Z,3.54
2022-12-05T01:00:27.563Z,3.54
2022-12-05T01:00:48.739Z,3.53
2022-12-05T01:01:09.906Z,3.54
2022-12-05T01:01:31.002Z,3.53
2022-12-05T01:01:52.420Z,3.54
2022-12-05T01:02:13.482Z,3.53
2022-12-05T01:02:34.570Z,3.53
2022-12-05T01:02:55.723Z,3.53
2022-12-05T01:03:16.812Z,3.54
2022-12-05T01:03:37.972Z,3.53
2022-12-05T01:03:59.031Z,3.53
2022-12-05T01:04:20.135Z,3.53
2022-12-05T01:04:41.174Z,3.53
2022-12-05T01:05:02.236Z,3.53
2022-12-05T01:05:23.323Z,3.53
2022-12-05T01:05:44.372Z,3.53
2022-12-05T01:06:05.463Z,3.54
2022-12-05T01:06:26.514Z,3.54
2022-12-05T01:06:47.576Z,3.54
2022-12-05T01:07:08.676Z,3.54
2022-12-05T01:07:29.799Z,3.54
2022-12-05T01:07:50.883Z,3.54
2022-12-05T01:08:12.065Z,3.53
2022-12-05T01:08:33.166Z,3.54
2022-12-05T01:08:54.211Z,3.53
2022-12-05T01:09:15.344Z,3.54
2022-12-05T01:09:36.377Z,3.54
2022-12-05T01:09:57.703Z,3.54
2022-12-05T01:10:18.827Z,3.54
2022-12-05T01:10:39.878Z,3.54
2022-12-05T01:11:00.931Z,3.54
2022-12-05T01:11:21.990Z,3.54
2022-12-05T01:11:43.087Z,3.54
2022-12-05T01:12:04.165Z,3.54
2022-12-05T01:12:25.358Z,3.54
2022-12-05T01:12:46.404Z,3.54
2022-12-05T01:13:07.461Z,3.54
2022-12-05T01:13:28.516Z,3.55
2022-12-05T01:13:49.577Z,3.55
2022-12-05T01:14:10.644Z,3.55
2022-12-05T01:14:31.700Z,3.54
2022-12-05T01:14:52.772Z,3.55
2022-12-05T01:15:13.910Z,3.55
2022-12-05T01:15:35.005Z,3.55
2022-12-05T01:15:56.044Z,3.55
2022-12-05T01:16:17.173Z,3.55
2022-12-05T01:16:38.337Z,3.55
2022-12-05T01:16:59.468Z,3.55
2022-12-05T01:17:20.528Z,3.55
2022-12-05T01:17:41.615Z,3.55
2022-12-05T01:18:02.675Z,3.55
2022-12-05T01:18:23.725Z,3.55
2022-12-05T01:18:44.790Z,3.55
2022-12-05T01:19:05.854Z,3.55
2022-12-05T01:19:26.923Z,3.55
2022-12-05T01:19:47.982Z,3.54
2022-12-05T01:20:09.033Z,3.55
2022-12-05T01:20:30.106Z,3.55
2022-12-05T01:20:51.205Z,3.55
2022-12-05T01:21:12.235Z,3.55
2022-12-05T01:21:33.296Z,3.55
2022-12-05T01:21:54.345Z,3.55
2022-12-05T01:22:15.412Z,3.54
2022-12-05T01:22:36.528Z,3.54
2022-12-05T01:22:57.602Z,3.55
2022-12-05T01:23:18.663Z,3.55
2022-12-05T01:23:39.718Z,3.55
2022-12-05T01:24:00.777Z,3.55
2022-12-05T01:24:21.861Z,3.56
2022-12-05T01:24:42.900Z,3.54
2022-12-05T01:25:03.951Z,3.55
2022-12-05T01:25:25.017Z,3.55
2022-12-05T01:25:46.121Z,3.55
2022-12-05T01:26:07.172Z,3.55
2022-12-05T01:26:28.221Z,3.55
2022-12-05T01:26:49.320Z,3.54
2022-12-05T01:27:10.359Z,3.55
2022-12-05T01:27:31.421Z,3.54
2022-12-05T01:27:52.495Z,3.55
2022-12-05T01:28:13.703Z,3.54
2022-12-05T01:28:34.820Z,3.54
2022-12-05T01:28:55.977Z,3.55
2022-12-05T01:29:17.168Z,3.55
2022-12-05T01:29:38.267Z,3.55
2022-12-05T01:29:59.683Z,3.55
2022-12-05T01:30:20.840Z,3.54
2022-12-05T01:30:41.879Z,3.55
2022-12-05T01:31:02.990Z,3.55
2022-12-05T01:31:24.170Z,3.55
2022-12-05T01:31:45.308Z,3.56
2022-12-05T01:32:06.455Z,3.55
2022-12-05T01:32:27.510Z,3.56
2022-12-05T01:32:48.574Z,3.56
2022-12-05T01:33:09.639Z,3.56
2022-12-05T01:33:30.819Z,3.56
2022-12-05T01:33:51.922Z,3.56
2022-12-05T01:34:12.994Z,3.56
2022-12-05T01:34:34.066Z,3.57
2022-12-05T01:34:55.106Z,3.56
2022-12-05T01:35:16.175Z,3.56
2022-12-05T01:35:37.269Z,3.56
2022-12-05T01:35:58.343Z,3.56
2022-12-05T01:36:19.462Z,3.56
2022-12-05T01:36:40.516Z,3.55
2022-12-05T01:37:01.621Z,3.56
2022-12-05T01:37:22.679Z,3.56
2022-12-05T01:37:43.755Z,3.56
2022-12-05T01:38:04.812Z,3.56
2022-12-05T01:38:25.871Z,3.55
2022-12-05T01:38:46.942Z,3.54
2022-12-05T01:39:07.980Z,3.55
2022-12-05T01:39:29.039Z,3.56
2022-12-05T01:39:50.114Z,3.56
2022-12-05T01:40:11.214Z,3.55
2022-12-05T01:40:32.313Z,3.55
2022-12-05T01:40:53.335Z,3.55
2022-12-05T01:41:14.400Z,3.54
2022-12-05T01:41:35.603Z,3.55
2022-12-05T01:41:56.635Z,3.54
2022-12-05T01:42:20.593Z,3.55
2022-12-05T01:42:44.671Z,3.54
2022-12-05T01:43:05.765Z,3.53
2022-12-05T01:43:26.814Z,3.55
2022-12-05T01:43:47.869Z,3.55
2022-12-05T01:44:08.932Z,3.55
2022-12-05T01:44:30.003Z,3.55
2022-12-05T01:44:51.054Z,3.55
2022-12-05T01:45:12.108Z,3.55
2022-12-05T01:45:33.280Z,3.55
2022-12-05T01:45:54.349Z,3.55
2022-12-05T01:46:15.412Z,3.55
2022-12-05T01:46:36.471Z,3.55
2022-12-05T01:46:57.536Z,3.55
2022-12-05T01:47:18.621Z,3.56
2022-12-05T01:47:39.717Z,3.55
2022-12-05T01:48:00.766Z,3.56
2022-12-05T01:48:21.819Z,3.55
2022-12-05T01:48:42.870Z,3.55
2022-12-05T01:49:03.959Z,3.56
2022-12-05T01:49:24.996Z,3.55
2022-12-05T01:49:46.073Z,3.55
2022-12-05T01:50:07.133Z,3.55
2022-12-05T01:50:28.201Z,3.55
2022-12-05T01:50:49.278Z,3.55
2022-12-05T01:51:10.323Z,3.55
2022-12-05T01:51:31.470Z,3.54
2022-12-05T01:51:52.503Z,3.55
2022-12-05T01:52:13.556Z,3.54
2022-12-05T01:52:34.749Z,3.55
2022-12-05T01:52:55.856Z,3.54
2022-12-05T01:53:16.894Z,3.53
2022-12-05T01:53:37.951Z,3.53
2022-12-05T01:53:59.062Z,3.54
2022-12-05T01:54:20.129Z,3.54
2022-12-05T01:54:41.194Z,3.54
2022-12-05T01:55:02.258Z,3.54
2022-12-05T01:55:23.311Z,3.55
2022-12-05T01:55:44.383Z,3.54
2022-12-05T01:56:05.495Z,3.53
2022-12-05T01:56:26.542Z,3.54
2022-12-05T01:56:47.595Z,3.54
2022-12-05T01:57:08.655Z,3.54
2022-12-05T01:57:29.739Z,3.53
2022-12-05T01:57:50.909Z,3.54
2022-12-05T01:58:11.994Z,3.54
2022-12-05T01:58:33.092Z,3.54
2022-12-05T01:58:54.165Z,3.54
2022-12-05T01:59:15.244Z,3.54
2022-12-05T01:59:36.373Z,3.53
2022-12-05T01:59:57.629Z,3.53
2022-12-05T02:00:18.763Z,3.54
2022-12-05T02:00:39.838Z,3.54
2022-12-05T02:01:00.902Z,3.53
2022-12-05T02:01:22.057Z,3.53
2022-12-05T02:01:43.337Z,3.53
2022-12-05T02:02:04.448Z,3.53
2022-12-05T02:02:25.616Z,3.53
2022-12-05T02:02:46.720Z,3.53
2022-12-05T02:03:07.801Z,3.54
2022-12-05T02:03:28.876Z,3.54
2022-12-05T02:03:49.941Z,3.54
2022-12-05T02:04:11.020Z,3.54
2022-12-05T02:04:32.075Z,3.54
2022-12-05T02:04:53.125Z,3.53
2022-12-05T02:05:14.226Z,3.54
2022-12-05T02:05:35.325Z,3.54
2022-12-05T02:05:56.392Z,3.54
2022-12-05T02:06:17.462Z,3.54
2022-12-05T02:06:38.538Z,3.54
2022-12-05T02:06:59.618Z,3.53
2022-12-05T02:07:20.660Z,3.54
2022-12-05T02:07:41.844Z,3.54
2022-12-05T02:08:02.977Z,3.54
2022-12-05T02:08:24.159Z,3.54
2022-12-05T02:08:45.237Z,3.54
2022-12-05T02:09:06.298Z,3.54
2022-12-05T02:09:27.346Z,3.53
2022-12-05T02:09:48.403Z,3.53
2022-12-05T02:10:09.464Z,3.53
2022-12-05T02:10:30.525Z,3.53
2022-12-05T02:10:51.614Z,3.53
2022-12-05T02:11:12.675Z,3.53
2022-12-05T02:11:33.752Z,3.53
2022-12-05T02:11:54.824Z,3.53
2022-12-05T02:12:15.875Z,3.53
2022-12-05T02:12:38.956Z,3.53
2022-12-05T02:13:00.278Z,3.52
2022-12-05T02:13:21.334Z,3.53
2022-12-05T02:13:42.532Z,3.52
2022-12-05T02:14:03.596Z,3.53
2022-12-05T02:14:24.663Z,3.53
2022-12-05T02:14:45.703Z,3.53
2022-12-05T02:15:06.770Z,3.52
2022-12-05T02:15:27.823Z,3.52
2022-12-05T02:15:52.377Z,3.52
2022-12-05T02:16:15.926Z,3.53
2022-12-05T02:16:37.038Z,3.52
2022-12-05T02:16:58.262Z,3.52
2022-12-05T02:17:19.360Z,3.51
2022-12-05T02:17:40.415Z,3.51
2022-12-05T02:18:01.465Z,3.51
2022-12-05T02:18:22.541Z,3.50
2022-12-05T02:18:43.748Z,3.51
2022-12-05T02:19:04.802Z,3.51
2022-12-05T02:19:25.886Z,3.50
2022-12-05T02:19:46.936Z,3.50
2022-12-05T02:20:08.020Z,3.50
2022-12-05T02:20:29.061Z,3.49
2022-12-05T02:20:50.110Z,3.49
2022-12-05T02:21:11.180Z,3.49
2022-12-05T02:21:32.243Z,3.49
2022-12-05T02:21:53.289Z,3.49
2022-12-05T02:22:14.368Z,3.50
2022-12-05T02:22:35.415Z,3.49
2022-12-05T02:22:56.668Z,3.49
2022-12-05T02:23:17.762Z,3.50
2022-12-05T02:23:38.825Z,3.49
2022-12-05T02:23:59.894Z,3.49
2022-12-05T02:24:20.941Z,3.48
2022-12-05T02:24:42.013Z,3.48
2022-12-05T02:25:03.082Z,3.48
2022-12-05T02:25:24.204Z,3.49
2022-12-05T02:25:45.238Z,3.49
2022-12-05T02:26:06.296Z,3.48
2022-12-05T02:26:27.396Z,3.48
2022-12-05T02:26:48.462Z,3.47
2022-12-05T02:27:09.529Z,3.48
2022-12-05T02:27:30.615Z,3.48
2022-12-05T02:27:51.727Z,3.48
2022-12-05T02:28:12.854Z,3.48
2022-12-05T02:28:33.949Z,3.48
2022-12-05T02:28:54.995Z,3.47
2022-12-05T02:29:16.104Z,3.47
2022-12-05T02:29:37.159Z,3.48
2022-12-05T02:29:58.552Z,3.47
2022-12-05T02:30:19.837Z,3.47
2022-12-05T02:30:40.927Z,3.47
2022-12-05T02:31:02.043Z,3.47
2022-12-05T02:31:23.157Z,3.47
2022-12-05T02:31:44.296Z,3.48
2022-12-05T02:32:05.382Z,3.48
2022-12-05T02:32:26.442Z,3.47
2022-12-05T02:32:47.530Z,3.48
2022-12-05T02:33:08.588Z,3.47
2022-12-05T02:33:29.821Z,3.48
2022-12-05T02:33:50.844Z,3.48
2022-12-05T02:34:11.914Z,3.48
2022-12-05T02:34:32.990Z,3.48
2022-12-05T02:34:54.027Z,3.48
2022-12-05T02:35:15.146Z,3.48
2022-12-05T02:35:36.212Z,3.48
2022-12-05T02:35:57.266Z,3.48
2022-12-05T02:36:18.362Z,3.48
2022-12-05T02:36:39.426Z,3.48
2022-12-05T02:37:00.548Z,3.48
2022-12-05T02:37:21.588Z,3.48
2022-12-05T02:37:42.654Z,3.48
2022-12-05T02:38:03.722Z,3.48
2022-12-05T02:38:24.793Z,3.48
2022-12-05T02:38:45.989Z,3.48
2022-12-05T02:39:07.050Z,3.48
2022-12-05T02:39:28.097Z,3.49
2022-12-05T02:39:49.186Z,3.48
2022-12-05T02:40:10.236Z,3.48
2022-12-05T02:40:31.288Z,3.48
2022-12-05T02:40:52.357Z,3.48
2022-12-05T02:41:13.422Z,3.48
2022-12-05T02:41:34.482Z,3.48
2022-12-05T02:41:55.538Z,3.49
2022-12-05T02:42:16.612Z,3.49
2022-12-05T02:42:37.669Z,3.48
2022-12-05T02:42:58.763Z,3.48
2022-12-05T02:43:19.803Z,3.47
2022-12-05T02:43:40.885Z,3.48
2022-12-05T02:44:01.976Z,3.48
2022-12-05T02:44:23.088Z,3.48
2022-12-05T02:44:44.112Z,3.48
2022-12-05T02:45:05.165Z,3.48
2022-12-05T02:45:26.232Z,3.49
2022-12-05T02:45:47.393Z,3.48
2022-12-05T02:46:08.599Z,3.48
2022-12-05T02:46:29.753Z,3.48
2022-12-05T02:46:50.832Z,3.49
2022-12-05T02:47:11.920Z,3.50
2022-12-05T02:47:32.972Z,3.49
2022-12-05T02:47:54.034Z,3.49
2022-12-05T02:48:15.086Z,3.48
2022-12-05T02:48:36.140Z,3.49
2022-12-05T02:48:57.199Z,3.49
2022-12-05T02:49:18.266Z,3.49
2022-12-05T02:49:39.447Z,3.49
2022-12-05T02:50:00.800Z,3.48
2022-12-05T02:50:21.906Z,3.49
2022-12-05T02:50:42.962Z,3.48
2022-12-05T02:51:04.041Z,3.49
2022-12-05T02:51:25.153Z,3.49
2022-12-05T02:51:46.195Z,3.49
2022-12-05T02:52:07.241Z,3.49
2022-12-05T02:52:28.311Z,3.49
2022-12-05T02:52:49.360Z,3.49
2022-12-05T02:53:10.411Z,3.49
2022-12-05T02:53:31.473Z,3.49
2022-12-05T02:53:52.527Z,3.50
2022-12-05T02:54:13.606Z,3.49
2022-12-05T02:54:34.725Z,3.50
2022-12-05T02:54:55.770Z,3.49
2022-12-05T02:55:16.823Z,3.49
2022-12-05T02:55:37.896Z,3.50
2022-12-05T02:55:58.957Z,3.49
2022-12-05T02:56:20.119Z,3.50
2022-12-05T02:56:41.156Z,3.51
2022-12-05T02:57:02.218Z,3.49
2022-12-05T02:57:23.277Z,3.50
2022-12-05T02:57:44.328Z,3.50
2022-12-05T02:58:05.397Z,3.50
2022-12-05T02:58:26.497Z,3.51
2022-12-05T02:58:47.560Z,3.50
2022-12-05T02:59:08.611Z,3.49
2022-12-05T02:59:29.664Z,3.50
2022-12-05T02:59:50.759Z,3.50
2022-12-05T03:00:11.813Z,3.51
2022-12-05T03:00:32.893Z,3.51
2022-12-05T03:00:53.986Z,3.50
2022-12-05T03:01:15.080Z,3.51
2022-12-05T03:01:36.206Z,3.51
2022-12-05T03:01:57.284Z,3.50
2022-12-05T03:02:18.336Z,3.50
2022-12-05T03:02:39.389Z,3.50
2022-12-05T03:03:00.460Z,3.51
2022-12-05T03:03:21.522Z,3.51
2022-12-05T03:03:42.589Z,3.50
2022-12-05T03:04:03.684Z,3.51
2022-12-05T03:04:24.894Z,3.51
2022-12-05T03:04:46.029Z,3.51
2022-12-05T03:05:07.180Z,3.50
2022-12-05T03:05:28.235Z,3.50
2022-12-05T03:05:49.308Z,3.51
2022-12-05T03:06:10.363Z,3.50
2022-12-05T03:06:31.422Z,3.51
2022-12-05T03:06:52.479Z,3.51
2022-12-05T03:07:13.550Z,3.51
2022-12-05T03:07:34.680Z,3.50
2022-12-05T03:07:55.814Z,3.50
2022-12-05T03:08:16.883Z,3.50
2022-12-05T03:08:37.936Z,3.50
2022-12-05T03:08:59.026Z,3.51
2022-12-05T03:09:20.115Z,3.51
2022-12-05T03:09:41.159Z,3.51
2022-12-05T03:10:02.303Z,3.51
2022-12-05T03:10:23.390Z,3.51
2022-12-05T03:10:44.437Z,3.50
2022-12-05T03:11:05.507Z,3.50
2022-12-05T03:11:26.564Z,3.50
2022-12-05T03:11:47.641Z,3.49
2022-12-05T03:12:08.687Z,3.50
2022-12-05T03:12:29.773Z,3.50
2022-12-05T03:12:50.847Z,3.49
2022-12-05T03:13:11.897Z,3.50
2022-12-05T03:13:32.975Z,3.50
2022-12-05T03:13:54.051Z,3.51
2022-12-05T03:14:15.138Z,3.50
2022-12-05T03:14:36.198Z,3.51
2022-12-05T03:14:57.242Z,3.51
2022-12-05T03:15:18.335Z,3.50
2022-12-05T03:15:39.425Z,3.51
2022-12-05T03:16:00.508Z,3.51
2022-12-05T03:16:21.642Z,3.52
2022-12-05T03:16:42.800Z,3.52
2022-12-05T03:17:03.892Z,3.51
2022-12-05T03:17:24.941Z,3.51
2022-12-05T03:17:46.017Z,3.52
2022-12-05T03:18:07.071Z,3.52
2022-12-05T03:18:28.170Z,3.52
2022-12-05T03:18:49.265Z,3.52
2022-12-05T03:19:10.298Z,3.52
2022-12-05T03:19:31.353Z,3.52
2022-12-05T03:19:52.448Z,3.53
2022-12-05T03:20:13.517Z,3.52
2022-12-05T03:20:34.575Z,3.52
2022-12-05T03:20:55.623Z,3.52
2022-12-05T03:21:16.742Z,3.53
2022-12-05T03:21:37.773Z,3.53
2022-12-05T03:21:58.820Z,3.53
2022-12-05T03:22:19.894Z,3.53
2022-12-05T03:22:40.947Z,3.53
2022-12-05T03:23:02.040Z,3.53
2022-12-05T03:23:23.102Z,3.53
2022-12-05T03:23:44.179Z,3.53
2022-12-05T03:24:05.225Z,3.53
2022-12-05T03:24:26.313Z,3.53
2022-12-05T03:24:47.347Z,3.52
2022-12-05T03:25:08.570Z,3.53
2022-12-05T03:25:29.623Z,3.53
2022-12-05T03:25:50.676Z,3.52
2022-12-05T03:26:11.733Z,3.53
2022-12-05T03:26:32.801Z,3.53
2022-12-05T03:26:53.864Z,3.53
2022-12-05T03:27:14.934Z,3.53
2022-12-05T03:27:35.984Z,3.53
2022-12-05T03:27:57.058Z,3.53
2022-12-05T03:28:18.130Z,3.53
2022-12-05T03:28:39.193Z,3.53
2022-12-05T03:29:00.296Z,3.53
2022-12-05T03:29:21.329Z,3.53
2022-12-05T03:29:42.394Z,3.53
2022-12-05T03:30:03.447Z,3.54
2022-12-05T03:30:24.613Z,3.53
2022-12-05T03:30:45.769Z,3.54
2022-12-05T03:31:06.879Z,3.54
2022-12-05T03:31:27.997Z,3.54
2022-12-05T03:31:49.102Z,3.54
2022-12-05T03:32:10.128Z,3.54
2022-12-05T03:32:31.231Z,3.54
2022-12-05T03:32:52.291Z,3.54
2022-12-05T03:33:13.345Z,3.55
2022-12-05T03:33:34.419Z,3.55
2022-12-05T03:33:55.462Z,3.56
2022-12-05T03:34:16.527Z,3.55
2022-12-05T03:34:37.594Z,3.55
2022-12-05T03:34:58.649Z,3.55
2022-12-05T03:35:19.727Z,3.56
2022-12-05T03:35:40.891Z,3.56
2022-12-05T03:36:01.971Z,3.56
2022-12-05T03:36:23.044Z,3.56
2022-12-05T03:36:44.136Z,3.57
2022-12-05T03:37:05.185Z,3.57
2022-12-05T03:37:26.344Z,3.57
2022-12-05T03:37:47.418Z,3.57
2022-12-05T03:38:08.483Z,3.57
2022-12-05T03:38:29.587Z,3.58
2022-12-05T03:38:50.625Z,3.57
2022-12-05T03:39:11.681Z,3.58
2022-12-05T03:39:32.743Z,3.58
2022-12-05T03:39:53.845Z,3.58
2022-12-05T03:40:14.884Z,3.58
2022-12-05T03:40:35.946Z,3.59
2022-12-05T03:40:57.033Z,3.59
2022-12-05T03:41:18.095Z,3.59
2022-12-05T03:41:39.539Z,3.60
2022-12-05T03:42:00.610Z,3.61
2022-12-05T03:42:21.665Z,3.60
2022-12-05T03:42:42.731Z,3.60
2022-12-05T03:43:03.806Z,3.61
2022-12-05T03:43:24.855Z,3.61
2022-12-05T03:43:45.903Z,3.61
2022-12-05T03:44:06.971Z,3.61
2022-12-05T03:44:28.018Z,3.62
2022-12-05T03:44:49.112Z,3.61
2022-12-05T03:45:10.167Z,3.62
2022-12-05T03:45:31.232Z,3.62
2022-12-05T03:45:52.367Z,3.62
2022-12-05T03:46:13.548Z,3.62
2022-12-05T03:46:34.686Z,3.62
2022-12-05T03:46:55.738Z,3.63
2022-12-05T03:47:16.814Z,3.63
2022-12-05T03:47:37.913Z,3.63
2022-12-05T03:47:58.989Z,3.63
2022-12-05T03:48:20.058Z,3.63
2022-12-05T03:48:41.103Z,3.64
2022-12-05T03:49:02.177Z,3.64
2022-12-05T03:49:23.216Z,3.64
2022-12-05T03:49:44.266Z,3.64
2022-12-05T03:50:05.335Z,3.64
2022-12-05T03:50:26.400Z,3.65
2022-12-05T03:50:47.480Z,3.65
2022-12-05T03:51:08.537Z,3.65
2022-12-05T03:51:29.612Z,3.65
2022-12-05T03:51:50.663Z,3.65
2022-12-05T03:52:11.719Z,3.66
2022-12-05T03:52:41.554Z,3.66
2022-12-05T03:53:20.892Z,3.66
2022-12-05T03:53:26.782Z,3.66
2022-12-05T03:53:47.802Z,3.65
2022-12-05T03:54:08.859Z,3.66
2022-12-05T03:54:29.949Z,3.65
2022-12-05T03:54:51.057Z,3.66
2022-12-05T03:55:12.096Z,3.66
2022-12-05T03:55:33.160Z,3.65
2022-12-05T03:55:54.243Z,3.65
2022-12-05T03:56:15.305Z,3.66
2022-12-05T03:56:36.492Z,3.65
2022-12-05T03:56:57.558Z,3.65
2022-12-05T03:57:18.645Z,3.65
2022-12-05T03:57:39.682Z,3.66
2022-12-05T03:58:00.744Z,3.65
2022-12-05T03:58:21.839Z,3.65
2022-12-05T03:58:42.897Z,3.66
2022-12-05T03:59:03.943Z,3.65
2022-12-05T03:59:25.018Z,3.66
2022-12-05T03:59:46.098Z,3.66
2022-12-05T04:00:07.168Z,3.66
2022-12-05T04:00:28.241Z,3.66
2022-12-05T04:00:49.294Z,3.66
2022-12-05T04:01:10.437Z,3.66
2022-12-05T04:01:31.543Z,3.66
2022-12-05T04:01:53.038Z,3.65
2022-12-05T04:02:14.122Z,3.65
2022-12-05T04:02:35.181Z,3.66
2022-12-05T04:02:56.303Z,3.66
2022-12-05T04:03:17.414Z,3.65
2022-12-05T04:03:38.547Z,3.65
2022-12-05T04:03:59.664Z,3.66
2022-12-05T04:04:20.749Z,3.65
2022-12-05T04:04:41.789Z,3.65
2022-12-05T04:05:02.843Z,3.65
2022-12-05T04:05:23.941Z,3.65
2022-12-05T04:05:45.010Z,3.65
2022-12-05T04:06:06.067Z,3.65
2022-12-05T04:06:27.129Z,3.65
2022-12-05T04:06:48.200Z,3.66
2022-12-05T04:07:09.274Z,3.66
2022-12-05T04:07:30.398Z,3.65
2022-12-05T04:07:51.563Z,3.66
2022-12-05T04:08:12.702Z,3.66
2022-12-05T04:08:33.790Z,3.65
2022-12-05T04:08:54.875Z,3.66
2022-12-05T04:09:17.475Z,3.66
2022-12-05T04:09:38.796Z,3.66
2022-12-05T04:10:00.417Z,3.67
2022-12-05T04:10:21.685Z,3.66
2022-12-05T04:10:42.840Z,3.67
2022-12-05T04:11:03.922Z,3.67
2022-12-05T04:11:25.050Z,3.67
2022-12-05T04:11:46.134Z,3.67
2022-12-05T04:12:07.222Z,3.67
2022-12-05T04:12:28.359Z,3.68
2022-12-05T04:12:49.425Z,3.67
2022-12-05T04:13:10.516Z,3.68
2022-12-05T04:13:31.545Z,3.68
2022-12-05T04:13:52.607Z,3.67
2022-12-05T04:14:13.665Z,3.68
2022-12-05T04:14:34.737Z,3.68
2022-12-05T04:14:55.790Z,3.68
2022-12-05T04:15:16.855Z,3.68
2022-12-05T04:15:37.958Z,3.68
2022-12-05T04:15:59.050Z,3.68
2022-12-05T04:16:20.226Z,3.68
2022-12-05T04:16:41.266Z,3.69
2022-12-05T04:17:02.318Z,3.69
2022-12-05T04:17:23.358Z,3.68
2022-12-05T04:17:46.105Z,3.68
2022-12-05T04:18:10.211Z,3.69
2022-12-05T04:18:31.272Z,3.68
2022-12-05T04:18:52.321Z,3.69
2022-12-05T04:19:13.379Z,3.68
2022-12-05T04:19:34.483Z,3.69
2022-12-05T04:19:55.957Z,3.69
2022-12-05T04:20:17.143Z,3.69
2022-12-05T04:20:38.207Z,3.69
2022-12-05T04:20:59.266Z,3.69
2022-12-05T04:21:20.334Z,3.69
2022-12-05T04:21:41.383Z,3.69
2022-12-05T04:22:02.453Z,3.70
2022-12-05T04:22:23.503Z,3.69
2022-12-05T04:22:44.600Z,3.68
2022-12-05T04:23:05.674Z,3.69
2022-12-05T04:23:26.724Z,3.69
2022-12-05T04:23:47.959Z,3.69
2022-12-05T04:24:08.968Z,3.69
2022-12-05T04:24:30.030Z,3.69
2022-12-05T04:24:51.111Z,3.70
2022-12-05T04:25:12.164Z,3.69
2022-12-05T04:25:33.246Z,3.69
2022-12-05T04:25:54.275Z,3.69
2022-12-05T04:26:15.337Z,3.70
2022-12-05T04:26:36.395Z,3.69
2022-12-05T04:26:57.589Z,3.69
2022-12-05T04:27:18.633Z,3.69
2022-12-05T04:27:39.708Z,3.69
2022-12-05T04:28:00.811Z,3.69
2022-12-05T04:28:22.204Z,3.69
2022-12-05T04:28:43.284Z,3.69
2022-12-05T04:29:04.338Z,3.69
2022-12-05T04:29:25.433Z,3.68
2022-12-05T04:29:46.469Z,3.68
2022-12-05T04:30:07.529Z,3.68
2022-12-05T04:30:28.586Z,3.69
2022-12-05T04:30:49.701Z,3.69
2022-12-05T04:31:10.778Z,3.69
2022-12-05T04:31:31.902Z,3.69
2022-12-05T04:31:52.984Z,3.69
2022-12-05T04:32:14.079Z,3.68
2022-12-05T04:32:35.128Z,3.68
2022-12-05T04:32:56.179Z,3.68
2022-12-05T04:33:17.260Z,3.68
2022-12-05T04:33:38.327Z,3.69
2022-12-05T04:33:59.370Z,3.70
2022-12-05T04:34:20.440Z,3.68
2022-12-05T04:34:41.490Z,3.68
2022-12-05T04:35:02.553Z,3.68
2022-12-05T04:35:23.621Z,3.68
2022-12-05T04:35:44.722Z,3.68
2022-12-05T04:36:05.771Z,3.68
2022-12-05T04:36:26.840Z,3.68
2022-12-05T04:36:47.896Z,3.68
2022-12-05T04:37:08.961Z,3.68
2022-12-05T04:37:30.026Z,3.68
2022-12-05T04:37:51.084Z,3.68
2022-12-05T04:38:12.134Z,3.68
2022-12-05T04:38:33.197Z,3.68
2022-12-05T04:38:54.318Z,3.68
2022-12-05T04:39:18.256Z,3.68
2022-12-05T04:39:39.529Z,3.69
2022-12-05T04:40:00.791Z,3.68
2022-12-05T04:40:21.977Z,3.68
2022-12-05T04:40:43.018Z,3.68
2022-12-05T04:41:04.079Z,3.68
2022-12-05T04:41:25.150Z,3.68